Time;durP1;ratioP1;P1;durP2;ratioP2;P2;SDS_P1;SDS_P2;PMS_P1;PMS_P2;Temp;Humidity;BMP_temperature;BMP_pressure;BME280_temperature;BME280_humidity;BME280_pressure;Samples;Min_cycle;Max_cycle;Signal;HPM_P1;HPM_P2
2022/04/26 03:37:05;;;;;;;5.13;3.60;;;11.80;99.90;;;;;;5093079;28;20192;-68
2022/04/26 03:39:32;;;;;;;5.87;3.50;;;11.90;99.90;;;;;;5093247;28;20299;-67
2022/04/26 03:41:59;;;;;;;5.60;3.20;;;11.90;99.90;;;;;;5092953;28;20211;-67
2022/04/26 03:44:26;;;;;;;7.03;3.50;;;11.90;99.90;;;;;;5092956;28;20199;-67
2022/04/26 03:46:53;;;;;;;4.67;3.43;;;11.90;99.90;;;;;;5092852;28;20192;-67
2022/04/26 03:49:21;;;;;;;5.00;3.60;;;11.90;99.90;;;;;;5092672;28;20304;-67
2022/04/26 03:51:48;;;;;;;6.83;3.70;;;11.90;99.90;;;;;;5092872;28;20188;-67
2022/04/26 03:54:15;;;;;;;6.47;3.93;;;11.90;99.90;;;;;;5093013;28;20749;-69
2022/04/26 03:56:42;;;;;;;8.33;4.13;;;11.90;99.90;;;;;;5091562;28;20249;-66
2022/04/26 03:59:09;;;;;;;6.60;3.70;;;12.00;99.90;;;;;;5092839;28;20236;-67
2022/04/26 04:01:35;;;;;;;4.87;3.53;;;12.00;99.90;;;;;;5092381;28;20206;-67
2022/04/26 04:04:02;;;;;;;8.20;4.07;;;12.00;99.90;;;;;;5092460;28;20204;-67
2022/04/26 04:06:30;;;;;;;5.53;3.83;;;12.10;99.90;;;;;;5092712;28;20204;-66
2022/04/26 04:08:57;;;;;;;8.73;4.17;;;12.10;99.90;;;;;;5092870;28;20203;-67
2022/04/26 04:11:24;;;;;;;9.67;4.63;;;12.10;99.90;;;;;;5092572;28;20204;-66
2022/04/26 04:13:51;;;;;;;7.83;4.03;;;12.10;99.90;;;;;;5092640;28;20211;-67
2022/04/26 04:16:18;;;;;;;6.70;4.03;;;12.20;99.90;;;;;;5092686;28;20592;-68
2022/04/26 04:21:39;;;;;;;8.40;4.10;;;12.20;99.90;;;;;;5043783;28;20200;-68
2022/04/26 04:24:06;;;;;;;6.60;3.80;;;12.20;99.90;;;;;;5092363;28;20225;-67
2022/04/26 04:26:33;;;;;;;6.40;4.40;;;12.20;99.90;;;;;;5092028;28;20206;-66
2022/04/26 04:29:00;;;;;;;7.90;4.50;;;12.20;99.90;;;;;;5092314;28;20196;-67
2022/04/26 04:31:27;;;;;;;7.80;4.80;;;12.20;99.90;;;;;;5092250;28;20681;-68
2022/04/26 04:33:53;;;;;;;5.33;3.97;;;12.20;99.90;;;;;;5092383;28;20211;-67
2022/04/26 04:36:20;;;;;;;8.10;4.67;;;12.20;99.90;;;;;;5092143;28;20369;-69
2022/04/26 04:38:48;;;;;;;9.90;5.50;;;12.20;99.90;;;;;;5092152;28;20227;-68
2022/04/26 04:41:15;;;;;;;6.93;4.87;;;12.30;99.90;;;;;;5091680;28;20204;-67
2022/04/26 04:43:42;;;;;;;5.93;4.60;;;12.30;99.90;;;;;;5091601;28;20289;-69
2022/04/26 04:46:09;;;;;;;5.10;4.60;;;12.30;99.90;;;;;;5091971;28;20211;-68
2022/04/26 04:48:36;;;;;;;8.87;4.43;;;12.40;99.90;;;;;;5091844;28;20222;-67
2022/04/26 04:51:02;;;;;;;6.33;3.90;;;12.40;99.90;;;;;;5091935;28;20199;-67
2022/04/26 04:53:29;;;;;;;6.53;3.93;;;12.50;99.90;;;;;;5091516;28;20208;-66
2022/04/26 04:55:57;;;;;;;5.30;3.73;;;12.40;99.90;;;;;;5091571;28;20204;-68
2022/04/26 04:58:25;;;;;;;5.63;4.03;;;12.50;99.90;;;;;;5091348;28;20257;-68
2022/04/26 05:00:52;;;;;;;8.70;4.03;;;12.50;99.90;;;;;;5091581;28;20286;-68
2022/04/26 05:03:19;;;;;;;7.33;4.20;;;12.50;99.90;;;;;;5091700;28;20214;-67
2022/04/26 05:05:45;;;;;;;6.87;4.83;;;12.50;99.90;;;;;;5091434;28;20200;-67
2022/04/26 05:08:12;;;;;;;6.10;4.10;;;12.50;99.90;;;;;;5091259;28;20200;-67
2022/04/26 05:10:41;;;;;;;7.03;4.40;;;12.50;99.90;;;;;;5091720;28;20666;-67
2022/04/26 05:13:09;;;;;;;9.33;4.83;;;12.50;99.90;;;;;;5091789;28;20563;-69
2022/04/26 05:15:38;;;;;;;6.70;4.27;;;12.40;99.90;;;;;;5091444;28;20208;-68
2022/04/26 05:18:05;;;;;;;6.50;4.43;;;12.40;99.90;;;;;;5091786;28;20231;-67
2022/04/26 05:20:32;;;;;;;8.17;4.87;;;12.50;99.90;;;;;;5091433;28;20550;-67
2022/04/26 05:25:43;;;;;;;8.33;4.17;;;12.50;99.90;;;;;;5091673;28;20253;-70
2022/04/26 05:28:12;;;;;;;5.57;3.57;;;12.40;99.90;;;;;;5091101;28;20222;-68
2022/04/26 05:30:39;;;;;;;6.70;3.40;;;12.50;99.90;;;;;;5091491;28;20203;-68
2022/04/26 05:33:06;;;;;;;5.67;3.43;;;12.50;99.90;;;;;;5091300;28;20203;-68
2022/04/26 05:35:32;;;;;;;6.67;3.90;;;12.50;99.90;;;;;;5091560;28;20662;-68
2022/04/26 05:37:59;;;;;;;6.90;3.43;;;12.60;99.90;;;;;;5091344;28;20227;-67
2022/04/26 05:40:26;;;;;;;8.07;3.53;;;12.60;99.90;;;;;;5090979;28;20211;-70
2022/04/26 05:42:53;;;;;;;6.47;3.77;;;12.70;99.90;;;;;;5091257;28;20701;-68
2022/04/26 05:45:21;;;;;;;7.57;3.63;;;12.70;99.90;;;;;;5090757;28;20211;-68
2022/04/26 05:47:48;;;;;;;6.70;3.87;;;12.70;99.90;;;;;;5091206;28;20199;-68
2022/04/26 05:50:15;;;;;;;5.90;3.47;;;12.80;99.90;;;;;;5090642;28;20247;-69
2022/04/26 05:52:42;;;;;;;8.27;3.80;;;12.80;99.90;;;;;;5091249;28;20210;-68
2022/04/26 05:55:09;;;;;;;4.93;3.63;;;12.90;99.90;;;;;;5094678;28;20213;-67
2022/04/26 05:57:38;;;;;;;6.53;3.70;;;12.90;99.90;;;;;;5095182;28;20200;-68
2022/04/26 06:00:07;;;;;;;5.20;3.70;;;13.00;99.90;;;;;;5094628;28;20268;-67
2022/04/26 06:02:35;;;;;;;4.17;3.10;;;13.10;99.90;;;;;;5095071;28;20204;-68
2022/04/26 06:05:02;;;;;;;5.43;3.17;;;13.20;99.90;;;;;;5094929;28;20210;-70
2022/04/26 06:07:29;;;;;;;5.40;2.90;;;13.20;99.90;;;;;;5094556;28;20227;-67
2022/04/26 06:09:57;;;;;;;4.07;3.10;;;13.20;99.90;;;;;;5094417;28;20219;-68
2022/04/26 06:12:26;;;;;;;4.67;3.07;;;13.20;99.90;;;;;;5094715;28;20227;-68
2022/04/26 06:14:53;;;;;;;5.50;2.90;;;13.30;99.90;;;;;;5094800;28;20745;-68
2022/04/26 06:17:20;;;;;;;5.33;3.00;;;13.30;99.90;;;;;;5094909;28;20212;-68
2022/04/26 06:19:48;;;;;;;4.37;2.80;;;13.40;99.90;;;;;;5094746;28;20227;-67
2022/04/26 06:22:15;;;;;;;4.97;2.83;;;13.50;99.90;;;;;;5094760;28;20218;-68
2022/04/26 06:24:42;;;;;;;3.87;3.17;;;13.70;99.90;;;;;;5094706;28;20200;-68
2022/04/26 06:27:09;;;;;;;4.03;3.10;;;13.80;99.90;;;;;;5094229;28;20208;-69
2022/04/26 06:29:36;;;;;;;5.50;3.03;;;13.90;99.90;;;;;;5094794;28;20202;-69
2022/04/26 06:32:03;;;;;;;6.07;2.90;;;13.90;99.90;;;;;;5094226;28;20200;-69
2022/04/26 06:34:29;;;;;;;5.83;2.90;;;14.00;99.90;;;;;;5094112;28;20204;-68
2022/04/26 06:36:58;;;;;;;3.20;2.60;;;14.00;99.90;;;;;;5094356;28;20232;-70
2022/04/26 06:39:24;;;;;;;5.00;2.47;;;14.10;99.90;;;;;;5094436;28;20227;-69
2022/04/26 06:41:51;;;;;;;2.73;2.03;;;14.10;99.90;;;;;;5093997;28;20420;-67
2022/04/26 06:44:18;;;;;;;4.53;2.30;;;14.20;99.90;;;;;;5094098;28;20234;-68
2022/04/26 06:46:45;;;;;;;3.60;2.13;;;14.30;99.90;;;;;;5094063;28;20653;-68
2022/04/26 06:49:12;;;;;;;5.13;2.37;;;14.40;99.90;;;;;;5093822;28;20231;-68
2022/04/26 06:51:41;;;;;;;3.27;2.20;;;14.60;99.90;;;;;;5093908;28;20203;-68
2022/04/26 06:54:09;;;;;;;4.27;2.10;;;14.70;99.90;;;;;;5094004;28;20639;-70
2022/04/26 06:56:35;;;;;;;4.13;2.50;;;14.80;99.90;;;;;;5093879;28;20208;-69
2022/04/26 06:59:02;;;;;;;2.53;2.10;;;14.90;99.90;;;;;;5093702;28;20587;-67
2022/04/26 07:01:29;;;;;;;5.17;2.20;;;14.90;99.90;;;;;;5093835;28;20200;-69
2022/04/26 07:03:56;;;;;;;4.23;2.10;;;14.90;99.90;;;;;;5093487;28;20212;-67
2022/04/26 07:06:23;;;;;;;3.70;2.27;;;14.90;99.90;;;;;;5092985;28;20568;-69
2022/04/26 07:08:49;;;;;;;3.37;2.13;;;14.90;99.90;;;;;;5093789;28;20196;-68
2022/04/26 07:11:18;;;;;;;3.50;2.30;;;15.00;99.90;;;;;;5093346;28;20204;-69
2022/04/26 07:13:44;;;;;;;3.17;1.70;;;15.00;99.90;;;;;;5093441;28;20208;-68
2022/04/26 07:16:11;;;;;;;3.67;2.03;;;15.00;99.90;;;;;;5093076;28;20214;-69
2022/04/26 07:18:38;;;;;;;11.90;2.50;;;15.10;99.90;;;;;;5093318;28;20216;-70
2022/04/26 07:21:05;;;;;;;5.70;2.30;;;15.20;99.90;;;;;;5092911;28;20208;-67
2022/04/26 07:23:31;;;;;;;3.50;2.37;;;15.20;99.90;;;;;;5093194;28;20208;-69
2022/04/26 07:25:59;;;;;;;4.57;1.90;;;15.10;99.90;;;;;;5093533;28;20672;-70
2022/04/26 07:28:28;;;;;;;2.83;2.00;;;15.20;99.90;;;;;;5093604;28;20290;-68
2022/04/26 07:30:54;;;;;;;6.43;2.53;;;15.10;99.90;;;;;;5093346;28;20208;-69
2022/04/26 07:36:06;;;;;;;3.77;2.40;;;15.20;99.90;;;;;;5093383;28;20554;-68
2022/04/26 07:38:33;;;;;;;5.57;2.40;;;15.30;99.90;;;;;;5093383;28;20577;-67
2022/04/26 07:41:00;;;;;;;4.50;2.43;;;15.30;99.90;;;;;;5093183;28;20204;-67
2022/04/26 07:43:28;;;;;;;4.77;2.13;;;15.30;99.90;;;;;;5092890;28;20262;-69
2022/04/26 07:45:55;;;;;;;4.50;2.20;;;15.40;99.90;;;;;;5093087;28;20207;-67
2022/04/26 07:48:22;;;;;;;4.73;2.10;;;15.30;99.90;;;;;;5092933;28;20200;-67
2022/04/26 07:50:50;;;;;;;4.40;2.50;;;15.30;99.90;;;;;;5092765;28;20235;-67
2022/04/26 07:53:17;;;;;;;5.17;2.77;;;15.30;99.90;;;;;;5093015;28;20199;-68
2022/04/26 07:55:44;;;;;;;7.63;3.00;;;15.30;99.90;;;;;;5092636;28;20204;-69
2022/04/26 07:58:11;;;;;;;6.43;2.90;;;15.20;99.90;;;;;;5092762;28;20268;-68
2022/04/26 08:00:39;;;;;;;10.77;3.07;;;15.10;99.90;;;;;;5092903;28;20619;-67
2022/04/26 08:03:06;;;;;;;4.17;2.20;;;15.00;99.90;;;;;;5092753;28;20204;-67
2022/04/26 08:05:33;;;;;;;3.93;2.50;;;15.00;99.90;;;;;;5092807;28;20210;-67
2022/04/26 08:08:00;;;;;;;6.40;2.60;;;15.10;99.90;;;;;;5092281;28;20253;-69
2022/04/26 08:10:27;;;;;;;4.43;2.40;;;15.20;99.90;;;;;;5092458;28;20200;-68
2022/04/26 08:12:54;;;;;;;3.80;2.17;;;15.20;99.90;;;;;;5092416;28;20208;-68
2022/04/26 08:15:21;;;;;;;4.43;2.37;;;15.20;99.90;;;;;;5092218;28;20211;-68
2022/04/26 08:17:50;;;;;;;3.50;2.13;;;15.20;99.90;;;;;;5091990;28;20210;-68
2022/04/26 08:20:17;;;;;;;5.43;2.50;;;15.20;99.90;;;;;;5092290;28;20228;-68
2022/04/26 08:22:44;;;;;;;5.27;2.40;;;15.20;99.90;;;;;;5092433;28;20199;-68
2022/04/26 08:27:56;;;;;;;3.27;1.80;;;15.20;99.90;;;;;;5091923;28;20183;-68
2022/04/26 08:30:23;;;;;;;5.20;2.33;;;15.30;99.90;;;;;;5092161;28;20210;-68
2022/04/26 08:32:51;;;;;;;4.97;2.20;;;15.30;99.90;;;;;;5092076;28;20211;-68
2022/04/26 08:35:21;;;;;;;4.07;1.80;;;15.30;99.90;;;;;;5091906;28;20204;-68
2022/04/26 08:37:49;;;;;;;6.50;2.00;;;15.30;99.90;;;;;;5091888;28;20200;-67
2022/04/26 08:40:16;;;;;;;3.37;2.03;;;15.20;99.90;;;;;;5092042;28;20252;-68
2022/04/26 08:42:45;;;;;;;3.80;2.47;;;15.20;99.90;;;;;;5091779;28;20227;-68
2022/04/26 08:45:13;;;;;;;6.07;2.80;;;15.20;99.90;;;;;;5091656;28;20249;-67
2022/04/26 08:53:15;;;;;;;3.07;1.97;;;15.30;99.90;;;;;;5091563;28;20191;-69
2022/04/26 08:55:43;;;;;;;2.73;1.87;;;15.30;99.90;;;;;;5091746;28;20193;-69
2022/04/26 08:58:12;;;;;;;3.53;2.07;;;15.30;99.90;;;;;;5091786;28;20204;-69
2022/04/26 09:00:41;;;;;;;4.17;2.03;;;15.20;99.90;;;;;;5091771;28;20687;-70
2022/04/26 09:03:08;;;;;;;3.73;2.17;;;15.20;99.90;;;;;;5091436;28;20208;-68
2022/04/26 09:05:37;;;;;;;6.73;2.23;;;15.20;99.90;;;;;;5091450;28;20211;-67
2022/04/26 09:08:22;;;;;;;6.90;3.23;;;15.10;99.90;;;;;;5091480;28;20700;-68
2022/04/26 09:10:49;;;;;;;3.87;2.10;;;15.10;99.90;;;;;;5091468;28;20192;-68
2022/04/26 09:13:19;;;;;;;3.73;1.83;;;15.00;99.90;;;;;;5091506;28;20203;-68
2022/04/26 09:15:49;;;;;;;2.87;1.90;;;15.00;99.90;;;;;;5091508;28;20856;-68
2022/04/26 09:18:20;;;;;;;4.30;2.10;;;15.00;99.90;;;;;;5091383;28;20214;-67
2022/04/26 09:20:49;;;;;;;4.37;2.30;;;15.00;99.90;;;;;;5091250;28;20298;-66
2022/04/26 09:23:21;;;;;;;5.00;2.27;;;15.00;99.90;;;;;;5091420;28;20204;-69
2022/04/26 09:25:51;;;;;;;2.60;1.90;;;14.90;99.90;;;;;;5091344;28;20198;-69
2022/04/26 09:28:27;;;;;;;4.87;2.03;;;14.90;99.90;;;;;;5092130;28;20204;-68
2022/04/26 09:30:54;;;;;;;2.77;1.80;;;14.90;99.90;;;;;;5095911;28;20634;-68
2022/04/26 09:33:43;;;;;;;2.90;1.83;;;14.90;99.90;;;;;;5095746;28;20246;-68
2022/04/26 09:36:12;;;;;;;4.20;1.83;;;14.90;99.90;;;;;;5095689;28;20188;-67
2022/04/26 09:38:39;;;;;;;5.47;2.00;;;15.10;99.90;;;;;;5095070;28;20210;-68
2022/04/26 09:41:09;;;;;;;4.93;2.17;;;15.20;99.90;;;;;;5095460;28;20203;-67
2022/04/26 09:43:36;;;;;;;2.63;1.80;;;15.30;99.90;;;;;;5095281;28;20299;-68
2022/04/26 09:46:04;;;;;;;3.20;1.90;;;15.50;99.90;;;;;;5095301;28;20243;-68
2022/04/26 09:48:35;;;;;;;4.10;1.70;;;15.70;99.90;;;;;;5095515;28;20207;-68
2022/04/26 09:51:03;;;;;;;2.70;1.80;;;15.80;99.90;;;;;;5095401;28;20242;-67
2022/04/26 09:53:32;;;;;;;2.10;1.60;;;15.90;99.90;;;;;;5095266;28;20558;-67
2022/04/26 09:56:01;;;;;;;2.70;1.50;;;15.90;99.90;;;;;;5095385;28;20609;-68
2022/04/26 09:58:29;;;;;;;3.93;1.40;;;15.90;99.90;;;;;;5095111;28;20563;-68
2022/04/26 10:00:57;;;;;;;2.47;1.67;;;16.00;99.90;;;;;;5094985;28;20220;-67
2022/04/26 10:03:28;;;;;;;4.27;2.60;;;15.90;99.90;;;;;;5094905;28;20209;-68
2022/04/26 10:06:01;;;;;;;3.00;1.70;;;16.00;99.90;;;;;;5095073;28;20188;-68
2022/04/26 10:08:32;;;;;;;2.63;1.80;;;16.00;99.90;;;;;;5095090;28;20254;-68
2022/04/26 10:11:00;;;;;;;3.17;1.40;;;16.10;99.90;;;;;;5094847;28;20369;-68
2022/04/26 10:13:35;;;;;;;4.47;1.70;;;16.10;99.90;;;;;;5095163;28;20295;-68
2022/04/26 10:16:04;;;;;;;2.57;1.80;;;16.10;99.90;;;;;;5094870;28;20687;-68
2022/04/26 10:18:34;;;;;;;2.93;1.60;;;16.20;99.90;;;;;;5094350;28;20248;-68
2022/04/26 10:21:01;;;;;;;2.60;1.67;;;16.20;99.90;;;;;;5094828;28;20686;-68
2022/04/26 10:23:28;;;;;;;3.33;1.60;;;16.40;99.90;;;;;;5094605;28;20213;-67
2022/04/26 10:26:26;;;;;;;3.27;1.60;;;16.40;99.90;;;;;;5094570;28;20216;-69
2022/04/26 10:28:54;;;;;;;4.33;1.60;;;16.50;99.90;;;;;;5094544;28;20205;-69
2022/04/26 10:31:36;;;;;;;4.43;2.00;;;16.60;99.90;;;;;;5095023;28;20207;-67
2022/04/26 10:34:16;;;;;;;3.60;1.73;;;16.70;99.90;;;;;;5094294;28;20186;-67
2022/04/26 10:36:43;;;;;;;3.77;1.37;;;16.90;99.90;;;;;;5094026;28;20380;-68
2022/04/26 10:39:38;;;;;;;2.80;1.60;;;16.90;99.90;;;;;;5094075;28;20220;-70
2022/04/26 10:42:26;;;;;;;2.63;1.50;;;16.90;99.90;;;;;;5094082;28;20228;-67
2022/04/26 10:44:57;;;;;;;4.83;1.50;;;16.90;99.90;;;;;;5094188;28;20197;-69
2022/04/26 10:47:29;;;;;;;3.27;1.70;;;16.90;99.90;;;;;;5094314;28;20201;-68
2022/04/26 10:50:02;;;;;;;4.53;1.67;;;16.90;99.90;;;;;;5093687;28;20243;-68
2022/04/26 10:52:35;;;;;;;2.63;1.50;;;16.80;99.90;;;;;;5093951;28;20248;-68
2022/04/26 10:55:05;;;;;;;2.57;1.53;;;16.70;99.90;;;;;;5094039;28;20535;-68
2022/04/26 10:57:35;;;;;;;1.97;1.67;;;16.70;99.90;;;;;;5094232;28;20208;-68
2022/04/26 11:00:04;;;;;;;3.23;1.60;;;16.70;99.90;;;;;;5094225;28;20232;-69
2022/04/26 11:02:36;;;;;;;3.33;1.80;;;16.70;99.90;;;;;;5093882;28;20231;-70
2022/04/26 11:05:05;;;;;;;3.30;1.50;;;16.70;99.90;;;;;;5094069;28;20189;-67
2022/04/26 11:07:32;;;;;;;3.30;1.80;;;16.60;99.90;;;;;;5093641;28;20205;-68
2022/04/26 11:10:01;;;;;;;3.33;1.80;;;16.60;99.90;;;;;;5094219;28;20197;-69
2022/04/26 11:12:29;;;;;;;1.87;1.63;;;16.50;99.90;;;;;;5094658;28;20208;-68
2022/04/26 11:14:59;;;;;;;2.60;1.67;;;16.40;99.90;;;;;;5093366;28;20211;-69
2022/04/26 11:17:27;;;;;;;3.27;2.10;;;16.30;99.90;;;;;;5093326;28;20218;-68
2022/04/26 11:19:56;;;;;;;4.13;2.13;;;16.20;99.90;;;;;;5093566;28;20441;-67
2022/04/26 11:22:24;;;;;;;4.07;2.20;;;16.10;99.90;;;;;;5093504;28;20211;-68
2022/04/26 11:30:30;;;;;;;3.47;2.20;;;15.80;99.90;;;;;;5093038;28;20187;-69
2022/04/26 11:32:58;;;;;;;4.03;2.70;;;15.70;99.90;;;;;;5093359;28;20188;-68
2022/04/26 11:35:25;;;;;;;4.00;2.13;;;15.70;99.90;;;;;;5092877;28;20200;-68
2022/04/26 11:37:54;;;;;;;3.80;2.03;;;15.50;99.90;;;;;;5093371;28;20728;-69
2022/04/26 11:40:26;;;;;;;3.77;2.37;;;15.40;99.90;;;;;;5092918;28;20224;-71
2022/04/26 11:42:54;;;;;;;4.40;2.10;;;15.40;99.90;;;;;;5092761;28;20228;-69
2022/04/26 11:45:21;;;;;;;2.63;1.83;;;15.40;99.90;;;;;;5092947;28;20258;-67
2022/04/26 11:47:50;;;;;;;3.07;1.80;;;15.60;99.90;;;;;;5092755;28;20200;-72
2022/04/26 11:50:20;;;;;;;2.83;2.00;;;15.60;99.90;;;;;;5092558;28;20236;-69
2022/04/26 11:52:48;;;;;;;3.20;1.70;;;15.60;99.90;;;;;;5092540;28;20208;-70
2022/04/26 11:55:26;;;;;;;2.77;1.97;;;15.60;99.90;;;;;;5093103;28;20204;-71
2022/04/26 11:57:54;;;;;;;3.33;2.10;;;15.50;99.90;;;;;;5092992;28;20214;-68
2022/04/26 12:00:22;;;;;;;3.67;1.73;;;15.50;99.90;;;;;;5092773;28;20235;-71
2022/04/26 12:02:51;;;;;;;2.97;1.60;;;15.50;99.90;;;;;;5092782;28;20209;-69
2022/04/26 12:05:21;;;;;;;2.23;1.90;;;15.60;99.90;;;;;;5092379;28;20205;-70
2022/04/26 12:07:50;;;;;;;2.77;1.70;;;15.60;99.90;;;;;;5092594;28;20263;-70
2022/04/26 12:10:27;;;;;;;2.10;1.87;;;15.60;99.90;;;;;;5092642;28;20211;-70
2022/04/26 12:12:56;;;;;;;2.30;1.90;;;15.70;99.90;;;;;;5092590;28;20692;-67
2022/04/26 12:15:26;;;;;;;3.10;1.80;;;15.80;99.90;;;;;;5092361;28;20613;-68
2022/04/26 12:18:09;;;;;;;2.17;1.80;;;15.90;99.90;;;;;;5092551;28;20234;-67
2022/04/26 12:20:37;;;;;;;2.67;1.80;;;16.00;99.90;;;;;;5092143;28;20212;-69
2022/04/26 12:23:05;;;;;;;5.20;1.90;;;16.00;99.90;;;;;;5091962;28;20210;-70
2022/04/26 12:25:33;;;;;;;1.90;1.70;;;16.00;99.90;;;;;;5091828;28;20223;-68
2022/04/26 12:28:08;;;;;;;3.37;1.73;;;16.10;99.90;;;;;;5092129;28;20595;-68
2022/04/26 12:30:38;;;;;;;3.13;2.10;;;16.20;99.90;;;;;;5091837;28;20211;-67
2022/04/26 12:33:07;;;;;;;4.67;2.13;;;16.20;99.90;;;;;;5092198;28;20211;-69
2022/04/26 12:35:34;;;;;;;2.27;1.90;;;16.20;99.90;;;;;;5091821;28;20711;-68
2022/04/26 12:38:08;;;;;;;2.53;2.00;;;16.30;99.90;;;;;;5092163;28;20212;-67
2022/04/26 12:40:35;;;;;;;3.23;2.00;;;16.40;99.90;;;;;;5092230;28;20220;-69
2022/04/26 12:43:02;;;;;;;3.60;2.10;;;16.50;99.90;;;;;;5091873;28;20209;-71
2022/04/26 12:45:29;;;;;;;3.00;2.20;;;16.50;99.90;;;;;;5092131;28;20349;-68
2022/04/26 12:50:54;;;;;;;4.60;2.20;;;16.40;99.90;;;;;;5091747;28;20239;-67
2022/04/26 12:53:31;;;;;;;5.33;2.37;;;16.40;99.90;;;;;;5091656;28;20207;-68
2022/04/26 12:56:07;;;;;;;6.37;2.20;;;16.30;99.90;;;;;;5092548;28;20275;-69
2022/04/26 12:58:39;;;;;;;2.43;2.00;;;16.20;99.90;;;;;;5092134;28;20192;-67
2022/04/26 13:01:07;;;;;;;3.27;2.43;;;16.10;99.90;;;;;;5091990;28;20228;-70
2022/04/26 13:03:36;;;;;;;2.43;2.17;;;16.10;99.90;;;;;;5091084;28;20211;-67
2022/04/26 13:06:08;;;;;;;3.00;2.37;;;15.90;99.90;;;;;;5091631;28;20208;-69
2022/04/26 13:08:36;;;;;;;4.40;2.33;;;15.90;99.90;;;;;;5091541;28;20208;-68
2022/04/26 13:11:04;;;;;;;4.83;2.57;;;16.00;99.90;;;;;;5091883;28;20204;-69
2022/04/26 13:13:31;;;;;;;3.13;2.40;;;16.00;99.90;;;;;;5091830;28;20629;-69
2022/04/26 13:15:58;;;;;;;4.00;2.50;;;16.00;99.90;;;;;;5091483;28;20200;-69
2022/04/26 13:18:25;;;;;;;3.17;2.40;;;16.10;99.90;;;;;;5091718;28;20628;-68
2022/04/26 13:20:54;;;;;;;4.17;3.00;;;16.10;99.90;;;;;;5091731;28;20588;-69
2022/04/26 13:23:21;;;;;;;3.67;2.50;;;16.10;99.90;;;;;;5091698;28;20710;-67
2022/04/26 13:25:48;;;;;;;5.03;2.87;;;16.10;99.90;;;;;;5091805;28;20211;-68
2022/04/26 13:28:16;;;;;;;3.57;2.30;;;16.20;99.90;;;;;;5091536;28;20238;-68
2022/04/26 13:30:43;;;;;;;2.50;2.30;;;16.30;99.90;;;;;;5091498;28;20200;-67
2022/04/26 13:33:10;;;;;;;2.30;2.10;;;16.30;99.90;;;;;;5091448;28;20201;-68
2022/04/26 13:35:38;;;;;;;3.53;2.30;;;16.40;99.90;;;;;;5091721;28;20313;-68
2022/04/26 13:38:09;;;;;;;2.70;2.20;;;16.40;99.90;;;;;;5091464;28;20220;-72
2022/04/26 13:40:37;;;;;;;2.57;2.10;;;16.40;99.90;;;;;;5091365;28;20235;-68
2022/04/26 13:43:04;;;;;;;5.13;2.40;;;16.40;99.90;;;;;;5091311;28;20700;-68
2022/04/26 13:45:32;;;;;;;3.47;2.80;;;16.40;99.90;;;;;;5091542;28;20207;-69
2022/04/26 13:47:59;;;;;;;2.73;2.30;;;16.40;99.90;;;;;;5091252;28;20209;-69
2022/04/26 13:50:26;;;;;;;2.70;2.23;;;16.40;99.90;;;;;;5091058;28;20612;-68
2022/04/26 13:52:53;;;;;;;2.77;2.10;;;16.30;99.90;;;;;;5090948;28;20208;-68
2022/04/26 13:55:21;;;;;;;2.53;1.80;;;16.10;99.90;;;;;;5091162;28;20920;-68
2022/04/26 13:57:48;;;;;;;4.30;2.00;;;15.80;99.90;;;;;;5091291;28;20692;-66
2022/04/26 14:00:16;;;;;;;2.30;2.10;;;15.40;99.90;;;;;;5090974;28;20257;-68
2022/04/26 14:02:46;;;;;;;3.17;2.27;;;15.30;99.90;;;;;;5091333;28;20200;-68
2022/04/26 14:05:13;;;;;;;3.27;2.20;;;15.10;99.90;;;;;;5091259;28;20208;-69
2022/04/26 14:07:41;;;;;;;3.60;2.40;;;15.10;99.90;;;;;;5091053;28;20208;-68
2022/04/26 14:10:08;;;;;;;3.10;2.10;;;15.00;99.90;;;;;;5091103;28;20600;-68
2022/04/26 14:12:37;;;;;;;4.10;2.70;;;15.00;99.90;;;;;;5091025;28;20641;-68
2022/04/26 14:23:20;;;;;;;3.53;2.97;;;14.90;99.90;;;;;;5094321;28;20229;-68
2022/04/26 14:25:47;;;;;;;3.77;3.00;;;15.00;99.90;;;;;;5094622;28;20263;-68
2022/04/26 14:28:15;;;;;;;5.20;3.70;;;14.90;99.90;;;;;;5094317;28;20211;-67
2022/04/26 14:30:42;;;;;;;4.47;3.40;;;14.80;99.90;;;;;;5094498;28;20204;-68
2022/04/26 14:33:09;;;;;;;7.57;4.60;;;14.80;99.90;;;;;;5094583;28;20200;-67
2022/04/26 14:35:36;;;;;;;7.23;5.33;;;14.70;99.90;;;;;;5094596;28;20215;-70
2022/04/26 14:38:04;;;;;;;8.70;5.83;;;14.70;99.90;;;;;;5094266;28;20204;-68
2022/04/26 14:40:31;;;;;;;9.37;5.70;;;14.70;99.90;;;;;;5094407;28;20631;-68
2022/04/26 14:42:58;;;;;;;9.40;6.10;;;14.60;99.90;;;;;;5094220;28;20212;-68
2022/04/26 14:45:32;;;;;;;11.00;6.57;;;14.60;99.90;;;;;;5094463;28;20216;-68
2022/04/26 14:48:00;;;;;;;10.23;6.47;;;14.60;99.90;;;;;;5094172;28;20215;-69
2022/04/26 14:50:27;;;;;;;10.50;6.70;;;14.50;99.90;;;;;;5093918;28;20239;-67
2022/04/26 14:52:54;;;;;;;9.70;6.67;;;14.40;99.90;;;;;;5094377;28;20208;-68
2022/04/26 14:55:21;;;;;;;11.47;7.70;;;14.40;99.90;;;;;;5093960;28;20200;-68
2022/04/26 14:57:48;;;;;;;11.20;7.87;;;14.30;99.90;;;;;;5093848;28;20298;-67
2022/04/26 15:00:15;;;;;;;10.70;7.07;;;14.20;99.90;;;;;;5093835;28;20210;-68
2022/04/26 15:02:44;;;;;;;10.47;7.33;;;14.20;99.90;;;;;;5094037;28;20204;-67
2022/04/26 15:05:11;;;;;;;13.20;8.07;;;14.10;99.90;;;;;;5093611;28;20218;-68
2022/04/26 15:10:23;;;;;;;16.67;8.40;;;14.10;99.90;;;;;;5093805;28;20200;-67
2022/04/26 15:18:21;;;;;;;16.33;8.77;;;13.90;99.90;;;;;;5093461;28;20187;-68
2022/04/26 15:20:50;;;;;;;14.23;8.20;;;13.90;99.90;;;;;;5093560;28;20228;-68
2022/04/26 15:23:18;;;;;;;14.10;8.73;;;13.90;99.90;;;;;;5093363;28;20291;-67
2022/04/26 15:25:50;;;;;;;14.00;9.03;;;13.90;99.90;;;;;;5092764;28;20212;-70
2022/04/26 15:28:18;;;;;;;14.07;9.00;;;13.90;99.90;;;;;;5093098;28;20210;-68
2022/04/26 15:30:45;;;;;;;13.87;9.00;;;13.80;99.90;;;;;;5093353;28;20207;-69
2022/04/26 15:33:12;;;;;;;13.70;8.63;;;13.80;99.90;;;;;;5093375;28;20215;-68
2022/04/26 15:35:42;;;;;;;12.80;8.60;;;13.60;99.90;;;;;;5093421;28;20567;-67
2022/04/26 15:38:10;;;;;;;13.43;8.97;;;13.50;99.90;;;;;;5093151;28;20677;-67
2022/04/26 15:40:37;;;;;;;14.07;8.30;;;13.50;99.90;;;;;;5092819;28;20232;-67
2022/04/26 15:43:06;;;;;;;11.87;8.03;;;13.50;99.90;;;;;;5093258;28;20303;-68
2022/04/26 15:45:33;;;;;;;15.70;7.90;;;13.40;99.90;;;;;;5093014;28;20208;-68
2022/04/26 15:48:01;;;;;;;11.73;7.73;;;13.30;99.90;;;;;;5093037;28;20214;-68
2022/04/26 15:50:28;;;;;;;10.67;7.20;;;13.30;99.90;;;;;;5092675;28;20289;-68
2022/04/26 15:52:56;;;;;;;10.83;7.33;;;13.30;99.90;;;;;;5092966;28;20662;-68
2022/04/26 15:55:23;;;;;;;11.40;7.53;;;13.30;99.90;;;;;;5092740;28;20200;-67
2022/04/26 15:57:51;;;;;;;11.67;7.30;;;13.30;99.90;;;;;;5092821;28;20199;-69
2022/04/26 16:00:20;;;;;;;9.37;6.87;;;13.20;99.90;;;;;;5092745;28;20212;-71
2022/04/26 16:02:47;;;;;;;11.80;7.47;;;13.20;99.90;;;;;;5092904;28;20698;-68
2022/04/26 16:05:14;;;;;;;12.07;7.10;;;13.20;99.90;;;;;;5093487;28;20208;-69
2022/04/26 16:07:41;;;;;;;11.13;6.97;;;13.20;99.90;;;;;;5092773;28;20208;-68
2022/04/26 16:21:25;;;;;;;9.03;6.57;;;13.00;99.90;;;;;;5010018;28;20614;-68
2022/04/26 16:23:53;;;;;;;10.07;6.93;;;12.90;99.90;;;;;;5058010;28;20223;-68
2022/04/26 16:26:22;;;;;;;11.90;7.30;;;12.90;99.90;;;;;;5092379;28;20207;-67
2022/04/26 16:28:51;;;;;;;9.23;7.03;;;12.90;99.90;;;;;;5092156;28;20208;-69
2022/04/26 16:31:18;;;;;;;11.53;7.23;;;12.90;99.90;;;;;;5092358;28;20673;-68
2022/04/26 16:33:45;;;;;;;10.67;6.90;;;12.90;99.90;;;;;;5092202;28;20200;-68
2022/04/26 16:36:12;;;;;;;11.17;7.10;;;12.80;99.90;;;;;;5092514;28;20203;-68
2022/04/26 16:38:39;;;;;;;9.80;6.90;;;12.90;99.90;;;;;;5092116;28;20200;-67
2022/04/26 16:41:06;;;;;;;11.20;7.07;;;12.80;99.90;;;;;;5092148;28;20574;-67
2022/04/26 16:43:36;;;;;;;10.63;7.40;;;12.80;99.90;;;;;;5092238;28;20715;-69
2022/04/26 16:46:03;;;;;;;10.77;6.80;;;12.80;99.90;;;;;;5092239;28;20204;-68
2022/04/26 16:48:30;;;;;;;8.97;6.93;;;12.80;99.90;;;;;;5092255;28;20210;-69
2022/04/26 16:50:56;;;;;;;11.10;6.93;;;12.80;99.90;;;;;;5091718;28;20250;-67
2022/04/26 16:53:23;;;;;;;10.17;6.80;;;12.80;99.90;;;;;;5091785;28;20207;-68
2022/04/26 16:55:50;;;;;;;9.90;6.60;;;12.80;99.90;;;;;;5091690;28;20215;-67
2022/04/26 16:58:18;;;;;;;11.83;7.53;;;12.80;99.90;;;;;;5092107;28;20203;-69
2022/04/26 17:00:47;;;;;;;13.93;7.57;;;12.70;99.90;;;;;;5091833;28;20203;-68
2022/04/26 17:03:15;;;;;;;11.30;7.67;;;12.70;99.90;;;;;;5091902;28;20344;-71
2022/04/26 17:05:45;;;;;;;10.10;6.93;;;12.70;99.90;;;;;;5091578;28;20330;-67
2022/04/26 17:08:12;;;;;;;8.97;6.30;;;12.60;99.90;;;;;;5092070;28;20199;-68
2022/04/26 17:10:39;;;;;;;9.13;6.30;;;12.60;99.90;;;;;;5091561;28;20216;-68
2022/04/26 17:13:06;;;;;;;9.03;6.00;;;12.50;99.90;;;;;;5091785;28;20210;-68
2022/04/26 17:15:32;;;;;;;10.50;6.40;;;12.50;99.90;;;;;;5091991;28;20583;-69
2022/04/26 17:18:01;;;;;;;8.53;6.63;;;12.40;99.90;;;;;;5091827;28;20199;-68
2022/04/26 17:20:32;;;;;;;7.63;5.80;;;12.30;99.90;;;;;;5091940;28;20214;-69